createdAt,value
2022-10-23T00:02:32.068Z,8.70
2022-10-23T00:05:42.139Z,8.69
2022-10-23T00:08:51.884Z,8.69
2022-10-23T00:12:01.718Z,8.65
2022-10-23T00:15:11.298Z,8.63
2022-10-23T00:18:19.792Z,8.54
2022-10-23T00:21:28.711Z,8.61
2022-10-23T00:24:37.151Z,8.52
2022-10-23T00:27:47.298Z,8.48
2022-10-23T00:30:55.722Z,8.52
2022-10-23T00:34:08.232Z,8.52
2022-10-23T00:37:16.914Z,8.51
2022-10-23T00:40:25.991Z,8.62
2022-10-23T00:43:55.472Z,8.51
2022-10-23T00:47:04.707Z,8.47
2022-10-23T00:50:13.514Z,8.46
2022-10-23T00:53:23.831Z,8.45
2022-10-23T00:56:37.406Z,8.45
2022-10-23T00:59:48.052Z,8.36
2022-10-23T01:02:58.361Z,8.35
2022-10-23T01:06:17.102Z,8.24
2022-10-23T01:09:33.049Z,8.20
2022-10-23T01:12:53.627Z,8.15
2022-10-23T01:16:13.456Z,8.05
2022-10-23T01:19:37.678Z,7.99
2022-10-23T01:23:23.658Z,7.93
2022-10-23T01:26:48.897Z,7.89
2022-10-23T01:30:08.909Z,7.83
2022-10-23T01:33:29.258Z,7.79
2022-10-23T01:36:44.405Z,7.76
2022-10-23T01:39:59.792Z,7.77
2022-10-23T01:43:16.546Z,7.77
2022-10-23T01:46:29.376Z,7.84
2022-10-23T01:49:42.660Z,7.78
2022-10-23T01:52:51.566Z,7.91
2022-10-23T01:56:04.302Z,7.89
2022-10-23T01:59:18.671Z,7.76
2022-10-23T02:02:31.835Z,7.73
2022-10-23T02:05:44.932Z,7.70
2022-10-23T02:08:53.732Z,7.80
2022-10-23T02:12:09.546Z,7.65
2022-10-23T02:15:30.002Z,7.66
2022-10-23T02:18:49.473Z,7.81
2022-10-23T02:22:09.174Z,7.68
2022-10-23T02:25:23.104Z,7.60
2022-10-23T02:28:40.256Z,7.47
2022-10-23T02:31:50.272Z,7.48
2022-10-23T02:35:02.081Z,7.44
2022-10-23T02:38:32.243Z,7.43
2022-10-23T02:42:09.239Z,7.49
2022-10-23T02:45:34.501Z,7.57
2022-10-23T02:48:51.818Z,7.53
2022-10-23T02:52:12.974Z,7.51
2022-10-23T02:55:36.762Z,7.64
2022-10-23T02:58:56.595Z,7.54
2022-10-23T03:02:19.281Z,7.45
2022-10-23T03:05:33.975Z,7.26
2022-10-23T03:08:46.321Z,7.25
2022-10-23T03:11:54.644Z,7.32
2022-10-23T03:15:02.998Z,7.32
2022-10-23T03:18:11.380Z,7.26
2022-10-23T03:21:20.295Z,7.32
2022-10-23T03:24:34.724Z,7.42
2022-10-23T03:27:43.075Z,7.34
2022-10-23T03:30:56.827Z,7.35
2022-10-23T03:34:09.896Z,7.35
2022-10-23T03:37:19.460Z,7.32
2022-10-23T03:40:29.198Z,7.27
2022-10-23T03:43:37.509Z,7.36
2022-10-23T03:46:47.767Z,7.27
2022-10-23T03:49:56.110Z,7.38
2022-10-23T03:53:05.573Z,7.30
2022-10-23T03:56:17.905Z,7.24
2022-10-23T03:59:27.270Z,7.33
2022-10-23T04:02:36.023Z,7.39
2022-10-23T04:05:46.026Z,7.30
2022-10-23T04:08:54.390Z,7.31
2022-10-23T04:12:05.816Z,7.22
2022-10-23T04:15:14.299Z,7.28
2022-10-23T04:18:26.511Z,7.32
2022-10-23T04:21:34.980Z,7.24
2022-10-23T04:24:46.666Z,7.21
2022-10-23T04:28:00.938Z,7.15
2022-10-23T04:31:14.515Z,7.12
2022-10-23T04:34:24.546Z,7.24
2022-10-23T04:37:35.079Z,7.34
2022-10-23T04:40:43.731Z,7.36
2022-10-23T04:43:53.674Z,7.32
2022-10-23T04:47:02.591Z,7.36
2022-10-23T04:50:11.966Z,7.23
2022-10-23T04:53:39.789Z,7.21
2022-10-23T04:57:05.200Z,7.20
2022-10-23T05:00:30.906Z,7.25
2022-10-23T05:03:40.184Z,7.25
2022-10-23T05:06:48.882Z,7.31
2022-10-23T05:10:17.003Z,7.34
2022-10-23T05:14:04.047Z,7.37
2022-10-23T05:17:20.880Z,7.37
2022-10-23T05:20:36.895Z,7.41
2022-10-23T05:23:47.564Z,7.44
2022-10-23T05:26:56.320Z,7.50
2022-10-23T05:30:06.995Z,7.45
2022-10-23T05:33:19.760Z,7.36
2022-10-23T05:36:33.085Z,7.18
2022-10-23T05:39:41.902Z,7.26
2022-10-23T05:42:55.221Z,7.30
2022-10-23T05:46:14.398Z,7.44
2022-10-23T05:49:25.872Z,7.50
2022-10-23T05:53:04.838Z,7.50
2022-10-23T05:56:25.308Z,7.52
2022-10-23T05:59:47.467Z,7.55
2022-10-23T06:03:25.066Z,7.60
2022-10-23T06:06:36.765Z,7.56
2022-10-23T06:09:45.532Z,7.63
2022-10-23T06:12:54.571Z,7.59
2022-10-23T06:16:11.182Z,7.56
2022-10-23T06:19:20.408Z,7.57
2022-10-23T06:22:35.287Z,7.59
2022-10-23T06:25:58.625Z,7.69
2022-10-23T06:29:14.865Z,7.74
2022-10-23T06:32:24.807Z,7.74
2022-10-23T06:35:49.202Z,7.87
2022-10-23T06:42:33.323Z,8.12
2022-10-23T06:46:04.009Z,8.29
2022-10-23T06:49:31.214Z,8.46
2022-10-23T06:52:47.138Z,8.65
2022-10-23T06:56:03.221Z,8.74
2022-10-23T06:59:12.411Z,8.81
2022-10-23T07:02:21.348Z,8.92
2022-10-23T07:05:30.083Z,9.08
2022-10-23T07:08:40.374Z,9.04
2022-10-23T07:12:16.320Z,9.17
2022-10-23T07:15:32.122Z,9.37
2022-10-23T07:18:41.206Z,9.51
2022-10-23T07:22:11.965Z,9.81
2022-10-23T07:25:30.653Z,9.99
2022-10-23T07:28:47.431Z,10.11
2022-10-23T07:32:02.051Z,10.27
2022-10-23T07:35:42.807Z,10.36
2022-10-23T07:38:54.506Z,10.62
2022-10-23T07:42:03.412Z,10.67
2022-10-23T07:45:13.756Z,10.84
2022-10-23T07:48:27.264Z,10.84
2022-10-23T07:51:42.422Z,10.83
2022-10-23T07:54:53.162Z,10.82
2022-10-23T07:58:02.467Z,10.87
2022-10-23T08:01:32.410Z,10.96
2022-10-23T08:04:41.933Z,10.95
2022-10-23T08:08:06.403Z,11.07
2022-10-23T08:11:20.313Z,11.11
2022-10-23T08:14:32.392Z,11.16
2022-10-23T08:17:44.473Z,11.36
2022-10-23T08:21:02.972Z,11.54
2022-10-23T08:24:13.909Z,11.91
2022-10-23T08:27:25.059Z,12.18
2022-10-23T08:30:34.578Z,12.40
2022-10-23T08:33:44.594Z,12.60
2022-10-23T08:36:53.037Z,13.04
2022-10-23T08:40:01.313Z,13.32
2022-10-23T08:43:52.669Z,13.71
2022-10-23T08:47:16.140Z,13.87
2022-10-23T08:50:50.658Z,14.13
2022-10-23T08:54:17.164Z,14.27
2022-10-23T08:57:38.782Z,14.47
2022-10-23T09:00:52.492Z,14.71
2022-10-23T09:04:01.640Z,14.86
2022-10-23T09:07:29.660Z,15.09
2022-10-23T09:11:04.806Z,15.32
2022-10-23T09:14:39.746Z,15.45
2022-10-23T09:17:55.135Z,15.59
2022-10-23T09:21:04.311Z,15.61
2022-10-23T09:24:18.541Z,15.71
2022-10-23T09:27:26.850Z,15.84
2022-10-23T09:30:39.696Z,15.94
2022-10-23T09:33:59.685Z,15.99
2022-10-23T09:37:24.475Z,16.21
2022-10-23T09:40:42.080Z,16.35
2022-10-23T09:44:19.593Z,16.68
2022-10-23T09:47:28.707Z,16.83
2022-10-23T09:50:37.317Z,16.94
2022-10-23T09:53:53.276Z,17.19
2022-10-23T09:57:21.031Z,17.52
2022-10-23T10:00:29.847Z,17.53
2022-10-23T10:03:38.949Z,17.66
2022-10-23T10:06:59.727Z,17.77
2022-10-23T10:10:16.753Z,17.87
2022-10-23T10:13:46.335Z,17.89
2022-10-23T10:17:04.902Z,17.92
2022-10-23T10:20:47.837Z,17.90
2022-10-23T10:24:10.180Z,17.96
2022-10-23T10:27:39.688Z,18.04
2022-10-23T10:31:08.978Z,18.22
2022-10-23T10:34:29.775Z,18.34
2022-10-23T10:38:09.265Z,18.51
2022-10-23T10:42:01.316Z,18.61
2022-10-23T10:45:28.158Z,18.65
2022-10-23T10:48:50.843Z,18.75
2022-10-23T10:52:29.988Z,18.85
2022-10-23T10:55:43.135Z,18.86
2022-10-23T10:58:56.438Z,18.79
2022-10-23T11:02:27.024Z,18.87
2022-10-23T11:05:44.153Z,18.82
2022-10-23T11:08:57.489Z,18.82
2022-10-23T11:12:07.553Z,18.81
2022-10-23T11:15:19.793Z,18.82
2022-10-23T11:18:32.666Z,18.78
2022-10-23T11:21:52.408Z,18.81
2022-10-23T11:25:46.586Z,18.92
2022-10-23T11:29:34.190Z,19.01
2022-10-23T11:33:44.009Z,19.14
2022-10-23T11:37:02.444Z,19.33
2022-10-23T11:40:24.863Z,19.51
2022-10-23T11:43:48.163Z,19.67
2022-10-23T11:47:06.413Z,19.94
2022-10-23T11:50:28.895Z,20.07
2022-10-23T11:53:42.017Z,20.09
2022-10-23T11:56:56.737Z,20.17
2022-10-23T12:00:22.881Z,20.28
2022-10-23T12:03:43.553Z,20.37
2022-10-23T12:06:56.470Z,20.68
2022-10-23T12:10:20.407Z,20.95
2022-10-23T12:13:44.754Z,20.89
2022-10-23T12:16:53.089Z,20.81
2022-10-23T12:20:23.830Z,20.80
2022-10-23T12:23:51.792Z,20.79
2022-10-23T12:27:21.710Z,20.74
2022-10-23T12:30:41.836Z,20.51
2022-10-23T12:34:02.646Z,20.36
2022-10-23T12:37:38.283Z,20.38
2022-10-23T12:40:51.736Z,20.54
2022-10-23T12:44:06.118Z,20.65
2022-10-23T12:47:19.745Z,20.65
2022-10-23T12:50:31.288Z,20.68
2022-10-23T12:53:39.490Z,20.77
2022-10-23T12:56:49.312Z,20.93
2022-10-23T13:00:04.525Z,21.02
2022-10-23T13:03:13.492Z,21.11
2022-10-23T13:06:22.883Z,21.23
2022-10-23T13:09:35.873Z,21.19
2022-10-23T13:12:59.696Z,21.20
2022-10-23T13:16:20.506Z,21.25
2022-10-23T13:19:28.868Z,21.22
2022-10-23T13:22:37.798Z,21.18
2022-10-23T13:25:56.359Z,21.09
2022-10-23T13:32:37.070Z,21.14
2022-10-23T13:35:58.061Z,21.16
2022-10-23T13:39:16.708Z,21.12
2022-10-23T13:42:27.158Z,21.03
2022-10-23T13:45:37.045Z,20.81
2022-10-23T13:48:47.498Z,20.63
2022-10-23T13:51:57.246Z,20.43
2022-10-23T13:55:18.354Z,20.35
2022-10-23T13:58:26.799Z,20.17
2022-10-23T14:01:37.026Z,20.09
2022-10-23T14:04:47.200Z,19.89
2022-10-23T14:07:55.687Z,19.83
2022-10-23T14:11:04.652Z,19.76
2022-10-23T14:14:16.163Z,19.64
2022-10-23T14:17:24.478Z,19.62
2022-10-23T14:20:34.241Z,19.59
2022-10-23T14:23:42.622Z,19.54
2022-10-23T14:26:51.103Z,19.53
2022-10-23T14:30:00.592Z,19.42
2022-10-23T14:33:09.084Z,19.28
2022-10-23T14:39:32.286Z,19.03
2022-10-23T14:42:40.714Z,18.80
2022-10-23T14:45:49.146Z,18.75
2022-10-23T14:49:02.135Z,18.77
2022-10-23T14:52:12.688Z,18.76
2022-10-23T14:55:21.278Z,18.66
2022-10-23T14:58:30.461Z,18.54
2022-10-23T15:01:45.268Z,18.48
2022-10-23T15:04:56.049Z,18.41
2022-10-23T15:08:06.070Z,18.33
2022-10-23T15:11:16.695Z,18.20
2022-10-23T15:14:25.146Z,18.09
2022-10-23T15:17:34.493Z,18.00
2022-10-23T15:20:43.147Z,17.85
2022-10-23T15:23:53.569Z,17.78
2022-10-23T15:27:02.489Z,17.68
2022-10-23T15:30:12.617Z,17.55
2022-10-23T15:33:22.230Z,17.42
2022-10-23T15:36:31.758Z,17.35
2022-10-23T15:39:41.794Z,17.23
2022-10-23T15:42:53.176Z,17.00
2022-10-23T15:46:02.206Z,16.86
2022-10-23T15:49:10.854Z,16.77
2022-10-23T15:52:19.156Z,16.66
2022-10-23T15:55:29.157Z,16.50
2022-10-23T15:58:37.603Z,16.38
2022-10-23T16:01:46.102Z,16.26
2022-10-23T16:04:54.311Z,16.13
2022-10-23T16:08:02.619Z,16.07
2022-10-23T16:11:18.970Z,15.97
2022-10-23T16:14:27.167Z,15.90
2022-10-23T16:17:35.523Z,15.71
2022-10-23T16:20:44.168Z,15.71
2022-10-23T16:23:54.435Z,15.73
2022-10-23T16:27:04.257Z,15.61
2022-10-23T16:30:14.201Z,15.59
2022-10-23T16:33:22.409Z,15.55
2022-10-23T16:36:31.494Z,15.48
2022-10-23T16:40:00.934Z,15.44
2022-10-23T16:43:29.439Z,15.39
2022-10-23T16:46:48.341Z,15.35
2022-10-23T16:49:56.718Z,15.22
2022-10-23T16:53:05.377Z,15.17
2022-10-23T16:56:16.855Z,15.17
2022-10-23T16:59:26.596Z,15.07
2022-10-23T17:02:35.141Z,15.02
2022-10-23T17:05:43.546Z,15.02
2022-10-23T17:08:52.351Z,14.89
2022-10-23T17:12:01.026Z,14.75
2022-10-23T17:15:12.636Z,14.61
2022-10-23T17:18:20.914Z,14.49
2022-10-23T17:21:34.148Z,14.37
2022-10-23T17:24:46.292Z,14.37
2022-10-23T17:27:57.366Z,14.28
2022-10-23T17:31:16.469Z,14.32
2022-10-23T17:34:25.524Z,14.17
2022-10-23T17:37:34.097Z,14.16
2022-10-23T17:40:42.911Z,14.20
2022-10-23T17:43:56.965Z,14.30
2022-10-23T17:47:07.123Z,14.32
2022-10-23T17:50:15.925Z,14.40
2022-10-23T17:53:24.235Z,14.51
2022-10-23T17:56:35.388Z,14.49
2022-10-23T17:59:44.432Z,14.40
2022-10-23T18:02:54.344Z,14.27
2022-10-23T18:06:08.906Z,14.18
2022-10-23T18:09:17.896Z,14.12
2022-10-23T18:12:26.617Z,14.24
2022-10-23T18:15:36.546Z,14.31
2022-10-23T18:18:48.773Z,14.38
2022-10-23T18:21:57.569Z,14.41
2022-10-23T18:25:08.023Z,14.37
2022-10-23T18:28:16.655Z,14.46
2022-10-23T18:31:30.658Z,14.47
2022-10-23T18:34:40.516Z,14.28
2022-10-23T18:37:48.947Z,14.10
2022-10-23T18:40:58.049Z,14.03
2022-10-23T18:44:06.657Z,13.93
2022-10-23T18:50:26.443Z,13.82
2022-10-23T18:53:34.965Z,13.86
2022-10-23T18:56:43.936Z,13.99
2022-10-23T18:59:53.204Z,14.02
2022-10-23T19:03:01.804Z,14.03
2022-10-23T19:06:11.622Z,13.99
2022-10-23T19:09:21.001Z,13.97
2022-10-23T19:12:29.594Z,13.92
2022-10-23T19:15:39.107Z,13.83
2022-10-23T19:18:54.715Z,13.74
2022-10-23T19:22:05.954Z,13.85
2022-10-23T19:25:19.708Z,13.96
2022-10-23T19:28:27.932Z,13.89
2022-10-23T19:31:36.530Z,13.86
2022-10-23T19:34:45.411Z,13.82
2022-10-23T19:37:55.021Z,13.80
2022-10-23T19:41:03.854Z,13.83
2022-10-23T19:44:14.025Z,13.88
2022-10-23T19:47:22.210Z,14.08
2022-10-23T19:50:30.610Z,14.17
2022-10-23T19:53:40.741Z,14.22
2022-10-23T19:56:49.833Z,14.22
2022-10-23T19:59:58.031Z,14.21
2022-10-23T20:03:06.282Z,14.23
2022-10-23T20:06:19.391Z,14.23
2022-10-23T20:09:29.592Z,14.32
2022-10-23T20:12:38.109Z,14.27
2022-10-23T20:15:46.534Z,14.31
2022-10-23T20:18:56.007Z,14.41
2022-10-23T20:22:04.460Z,14.41
2022-10-23T20:25:14.000Z,14.36
2022-10-23T20:28:22.159Z,14.34
2022-10-23T20:31:31.220Z,14.38
2022-10-23T20:34:39.883Z,14.38
2022-10-23T20:37:48.186Z,14.41
2022-10-23T20:41:00.391Z,14.43
2022-10-23T20:44:12.144Z,14.42
2022-10-23T20:47:20.593Z,14.40
2022-10-23T20:50:28.776Z,14.45
2022-10-23T20:53:38.500Z,14.62
2022-10-23T20:56:48.947Z,14.65
2022-10-23T20:59:57.559Z,14.66
2022-10-23T21:03:09.267Z,14.76
2022-10-23T21:06:19.395Z,14.80
2022-10-23T21:09:30.830Z,14.91
2022-10-23T21:12:43.890Z,14.87
2022-10-23T21:15:52.609Z,15.02
2022-10-23T21:19:03.201Z,14.78
2022-10-23T21:22:11.424Z,14.24
2022-10-23T21:25:20.448Z,14.24
2022-10-23T21:28:30.645Z,14.31
2022-10-23T21:31:40.946Z,14.36
2022-10-23T21:34:50.148Z,14.75
2022-10-23T21:37:59.683Z,14.95
2022-10-23T21:41:10.527Z,15.51
2022-10-23T21:44:21.215Z,16.29
2022-10-23T21:47:30.129Z,16.45
2022-10-23T21:50:39.438Z,16.48
2022-10-23T21:53:47.769Z,16.29
2022-10-23T21:56:56.038Z,16.04
2022-10-23T22:00:08.617Z,15.92
2022-10-23T22:03:22.560Z,15.82
2022-10-23T22:06:32.758Z,15.68
2022-10-23T22:09:42.127Z,15.52
2022-10-23T22:12:52.263Z,15.55
2022-10-23T22:16:06.418Z,15.86
2022-10-23T22:19:20.668Z,15.76
2022-10-23T22:22:29.128Z,15.78
2022-10-23T22:25:40.883Z,15.72
2022-10-23T22:28:50.216Z,15.67
2022-10-23T22:32:01.177Z,15.71
2022-10-23T22:35:09.950Z,15.82
2022-10-23T22:38:18.147Z,15.88
2022-10-23T22:41:27.846Z,15.99
2022-10-23T22:44:36.700Z,15.93
2022-10-23T22:47:46.725Z,15.90
2022-10-23T22:50:56.276Z,16.03
2022-10-23T22:54:04.719Z,16.36
2022-10-23T22:57:13.558Z,16.34
2022-10-23T23:00:22.167Z,16.42
2022-10-23T23:03:39.852Z,16.43
2022-10-23T23:06:49.269Z,16.55
2022-10-23T23:10:01.445Z,16.67
2022-10-23T23:13:09.855Z,16.79
2022-10-23T23:16:21.897Z,16.96
2022-10-23T23:19:34.403Z,17.02
2022-10-23T23:22:42.968Z,16.98
2022-10-23T23:25:51.711Z,17.00
2022-10-23T23:28:59.926Z,16.95
2022-10-23T23:32:08.383Z,16.84
2022-10-23T23:35:19.025Z,16.88
2022-10-23T23:38:27.753Z,16.98
2022-10-23T23:41:36.296Z,16.97
2022-10-23T23:44:55.762Z,16.90
2022-10-23T23:48:10.963Z,16.84
2022-10-23T23:51:24.095Z,16.89
2022-10-23T23:54:32.727Z,16.92
2022-10-23T23:57:41.390Z,16.88
